createdAt,value
2023-01-13T00:01:18.269Z,2.63
2023-01-13T00:03:46.133Z,2.65
2023-01-13T00:06:16.516Z,2.00
2023-01-13T00:08:44.427Z,1.52
2023-01-13T00:11:11.887Z,1.58
2023-01-13T00:13:39.445Z,1.58
2023-01-13T00:16:11.184Z,1.75
2023-01-13T00:18:39.032Z,1.60
2023-01-13T00:21:20.791Z,1.42
2023-01-13T00:23:49.133Z,1.08
2023-01-13T00:26:19.776Z,1.50
2023-01-13T00:28:47.372Z,1.30
2023-01-13T00:31:18.078Z,1.10
2023-01-13T00:33:46.332Z,0.93
2023-01-13T00:36:15.387Z,0.93
2023-01-13T00:38:43.739Z,0.90
2023-01-13T00:41:19.673Z,0.73
2023-01-13T00:43:48.356Z,0.80
2023-01-13T00:46:21.079Z,0.82
2023-01-13T00:48:49.712Z,0.80
2023-01-13T00:51:19.852Z,0.70
2023-01-13T00:53:50.057Z,0.85
2023-01-13T00:56:38.470Z,0.73
2023-01-13T00:59:07.926Z,0.80
2023-01-13T01:01:35.525Z,0.60
2023-01-13T01:04:03.335Z,0.60
2023-01-13T01:06:31.148Z,0.55
2023-01-13T01:08:58.766Z,0.63
2023-01-13T01:11:29.113Z,0.70
2023-01-13T01:13:58.698Z,0.63
2023-01-13T01:16:27.882Z,0.90
2023-01-13T01:18:56.731Z,1.00
2023-01-13T01:21:26.374Z,0.82
2023-01-13T01:23:54.866Z,0.90
2023-01-13T01:26:26.949Z,0.90
2023-01-13T01:28:55.141Z,1.30
2023-01-13T01:31:28.561Z,1.13
2023-01-13T01:33:56.125Z,0.95
2023-01-13T01:36:26.755Z,1.25
2023-01-13T01:38:57.744Z,0.90
2023-01-13T01:41:30.113Z,1.17
2023-01-13T01:44:17.485Z,1.00
2023-01-13T01:46:45.349Z,1.45
2023-01-13T01:49:23.761Z,1.15
2023-01-13T01:52:04.385Z,1.02
2023-01-13T01:55:14.823Z,1.15
2023-01-13T01:57:58.129Z,1.20
2023-01-13T02:00:28.486Z,1.45
2023-01-13T02:02:57.201Z,1.50
2023-01-13T02:05:24.853Z,1.70
2023-01-13T02:07:55.019Z,1.88
2023-01-13T02:10:27.615Z,1.70
2023-01-13T02:12:59.248Z,1.70
2023-01-13T02:15:38.748Z,1.88
2023-01-13T02:18:20.151Z,1.70
2023-01-13T02:21:09.457Z,1.63
2023-01-13T02:24:21.463Z,1.52
2023-01-13T02:27:22.308Z,1.30
2023-01-13T02:30:14.576Z,1.63
2023-01-13T02:32:44.764Z,1.33
2023-01-13T02:35:28.277Z,1.40
2023-01-13T02:37:58.593Z,1.50
2023-01-13T02:41:33.842Z,1.65
2023-01-13T02:44:07.917Z,1.38
2023-01-13T02:46:46.267Z,1.20
2023-01-13T02:49:24.787Z,0.82
2023-01-13T02:51:54.461Z,0.98
2023-01-13T02:54:26.636Z,1.15
2023-01-13T02:56:55.815Z,1.10
2023-01-13T02:59:26.652Z,0.80
2023-01-13T03:01:57.492Z,1.05
2023-01-13T03:04:45.837Z,0.70
2023-01-13T03:07:31.600Z,0.82
2023-01-13T03:10:11.186Z,0.70
2023-01-13T03:12:56.620Z,0.75
2023-01-13T03:15:40.290Z,0.77
2023-01-13T03:18:43.265Z,0.70
2023-01-13T03:21:29.467Z,1.27
2023-01-13T03:24:07.522Z,0.52
2023-01-13T03:26:41.358Z,0.82
2023-01-13T03:29:32.253Z,1.23
2023-01-13T03:32:27.334Z,0.88
2023-01-13T03:35:00.785Z,0.73
2023-01-13T03:37:33.671Z,1.08
2023-01-13T03:40:07.588Z,1.23
2023-01-13T03:42:38.054Z,0.75
2023-01-13T03:45:15.564Z,0.50
2023-01-13T03:47:55.813Z,0.75
2023-01-13T03:50:29.513Z,0.95
2023-01-13T03:53:07.208Z,0.70
2023-01-13T03:55:38.094Z,0.60
2023-01-13T03:58:23.269Z,0.60
2023-01-13T04:00:53.671Z,0.60
2023-01-13T04:03:31.806Z,0.50
2023-01-13T04:06:12.466Z,0.55
2023-01-13T04:08:49.775Z,0.60
2023-01-13T04:11:28.112Z,0.90
2023-01-13T04:13:56.899Z,0.70
2023-01-13T04:16:24.774Z,0.50
2023-01-13T04:18:52.231Z,0.50
2023-01-13T04:21:19.691Z,0.55
2023-01-13T04:23:51.330Z,0.43
2023-01-13T04:26:19.820Z,0.77
2023-01-13T04:28:47.482Z,1.05
2023-01-13T04:31:15.122Z,0.60
2023-01-13T04:33:42.610Z,0.40
2023-01-13T04:36:10.165Z,0.52
2023-01-13T04:38:37.617Z,0.70
2023-01-13T04:41:05.276Z,0.63
2023-01-13T04:43:32.688Z,0.60
2023-01-13T04:46:00.280Z,0.50
2023-01-13T04:48:27.811Z,0.60
2023-01-13T04:50:55.265Z,0.35
2023-01-13T04:53:22.661Z,0.47
2023-01-13T04:55:50.222Z,0.50
2023-01-13T04:58:17.885Z,0.35
2023-01-13T05:00:45.513Z,0.52
2023-01-13T05:03:13.059Z,0.20
2023-01-13T05:05:40.672Z,0.20
2023-01-13T05:08:09.098Z,0.20
2023-01-13T05:10:37.334Z,0.30
2023-01-13T05:13:23.587Z,0.30
2023-01-13T05:16:23.500Z,0.30
2023-01-13T05:18:51.091Z,0.38
2023-01-13T05:21:37.245Z,0.30
2023-01-13T05:24:37.212Z,0.22
2023-01-13T05:27:04.686Z,0.20
2023-01-13T05:29:32.188Z,0.40
2023-01-13T05:32:02.562Z,0.40
2023-01-13T05:34:30.063Z,0.50
2023-01-13T05:36:57.524Z,0.50
2023-01-13T05:39:24.973Z,0.75
2023-01-13T05:42:24.733Z,0.60
2023-01-13T05:44:52.203Z,0.40
2023-01-13T05:47:19.605Z,0.68
2023-01-13T05:49:47.116Z,0.50
2023-01-13T05:52:14.535Z,0.43
2023-01-13T05:54:42.081Z,0.50
2023-01-13T05:57:09.536Z,0.50
2023-01-13T05:59:37.146Z,0.70
2023-01-13T06:02:04.579Z,0.60
2023-01-13T06:04:32.127Z,0.55
2023-01-13T06:06:59.669Z,0.70
2023-01-13T06:09:27.083Z,0.70
2023-01-13T06:11:54.627Z,0.80
2023-01-13T06:14:22.053Z,0.80
2023-01-13T06:16:49.614Z,0.98
2023-01-13T06:19:17.626Z,1.00
2023-01-13T06:21:45.198Z,1.13
2023-01-13T06:24:12.590Z,1.20
2023-01-13T06:26:41.543Z,0.95
2023-01-13T06:29:10.202Z,1.10
2023-01-13T06:31:39.692Z,1.13
2023-01-13T06:34:12.629Z,1.10
2023-01-13T06:36:44.723Z,1.15
2023-01-13T06:39:16.201Z,0.80
2023-01-13T06:42:02.179Z,1.02
2023-01-13T06:44:29.727Z,1.42
2023-01-13T06:46:57.236Z,0.90
2023-01-13T06:49:24.844Z,1.80
2023-01-13T06:51:52.316Z,0.93
2023-01-13T06:54:19.806Z,0.90
2023-01-13T06:56:48.653Z,1.00
2023-01-13T06:59:16.224Z,0.90
2023-01-13T07:01:44.038Z,1.13
2023-01-13T07:04:11.736Z,1.63
2023-01-13T07:06:39.238Z,1.20
2023-01-13T07:09:06.994Z,1.35
2023-01-13T07:11:34.617Z,0.85
2023-01-13T07:14:20.963Z,1.10
2023-01-13T07:19:23.162Z,0.90
2023-01-13T07:21:52.503Z,1.13
2023-01-13T07:24:20.274Z,3.05
2023-01-13T07:26:47.943Z,0.70
2023-01-13T07:29:15.440Z,0.93
2023-01-13T07:31:43.020Z,0.77
2023-01-13T07:34:10.561Z,0.95
2023-01-13T07:36:39.294Z,0.77
2023-01-13T07:39:07.720Z,0.70
2023-01-13T07:41:53.912Z,0.88
2023-01-13T07:44:22.613Z,0.50
2023-01-13T07:46:50.059Z,0.50
2023-01-13T07:49:18.951Z,0.65
2023-01-13T07:51:46.468Z,0.73
2023-01-13T07:54:13.967Z,0.77
2023-01-13T07:56:41.379Z,1.60
2023-01-13T07:59:08.885Z,1.40
2023-01-13T08:01:36.411Z,1.05
2023-01-13T08:04:04.010Z,0.98
2023-01-13T08:06:31.559Z,0.90
2023-01-13T08:08:59.224Z,1.30
2023-01-13T08:11:26.638Z,1.30
2023-01-13T08:13:57.880Z,1.70
2023-01-13T08:16:25.526Z,0.93
2023-01-13T08:18:53.046Z,1.05
2023-01-13T08:21:20.571Z,1.02
2023-01-13T08:23:48.170Z,1.10
2023-01-13T08:26:17.935Z,1.15
2023-01-13T08:28:46.267Z,1.27
2023-01-13T08:31:16.642Z,1.23
2023-01-13T08:33:44.451Z,2.40
2023-01-13T08:36:12.741Z,1.48
2023-01-13T08:38:42.508Z,1.10
2023-01-13T08:41:36.123Z,2.08
2023-01-13T08:44:03.881Z,1.75
2023-01-13T08:46:31.378Z,1.42
2023-01-13T08:48:58.954Z,1.10
2023-01-13T08:51:26.439Z,1.50
2023-01-13T08:53:53.965Z,1.40
2023-01-13T08:56:21.460Z,1.00
2023-01-13T08:58:49.029Z,1.88
2023-01-13T09:01:22.210Z,1.35
2023-01-13T09:03:50.040Z,1.10
2023-01-13T09:06:17.602Z,1.50
2023-01-13T09:08:45.309Z,1.08
2023-01-13T09:11:39.361Z,1.48
2023-01-13T09:14:06.842Z,1.33
2023-01-13T09:16:34.421Z,1.35
2023-01-13T09:19:01.954Z,1.05
2023-01-13T09:21:29.423Z,1.10
2023-01-13T09:23:56.948Z,1.20
2023-01-13T09:26:24.412Z,1.25
2023-01-13T09:28:51.879Z,1.05
2023-01-13T09:31:19.408Z,1.30
2023-01-13T09:34:05.438Z,1.10
2023-01-13T09:36:32.993Z,1.27
2023-01-13T09:39:00.449Z,1.17
2023-01-13T09:41:49.363Z,1.77
2023-01-13T09:44:24.404Z,1.33
2023-01-13T09:46:58.147Z,1.10
2023-01-13T09:49:37.874Z,0.98
2023-01-13T09:52:20.062Z,0.93
2023-01-13T09:55:09.404Z,1.02
2023-01-13T09:57:38.391Z,1.10
2023-01-13T10:00:33.733Z,1.30
2023-01-13T10:03:19.551Z,1.45
2023-01-13T10:05:59.113Z,1.23
2023-01-13T10:08:36.912Z,1.30
2023-01-13T10:11:25.490Z,1.33
2023-01-13T10:13:58.603Z,1.20
2023-01-13T10:16:42.150Z,1.42
2023-01-13T10:19:25.918Z,1.00
2023-01-13T10:22:27.118Z,1.10
2023-01-13T10:24:57.640Z,0.98
2023-01-13T10:27:36.118Z,1.00
2023-01-13T10:30:17.789Z,1.08
2023-01-13T10:33:14.643Z,1.08
2023-01-13T10:38:46.833Z,1.75
2023-01-13T10:41:20.173Z,1.10
2023-01-13T10:44:08.575Z,0.88
2023-01-13T10:46:55.568Z,1.02
2023-01-13T10:49:37.148Z,0.95
2023-01-13T10:52:25.863Z,0.77
2023-01-13T10:54:54.891Z,0.73
2023-01-13T10:57:25.491Z,1.20
2023-01-13T10:59:53.794Z,0.95
2023-01-13T11:02:35.944Z,0.98
2023-01-13T11:05:23.331Z,1.13
2023-01-13T11:07:52.608Z,1.10
2023-01-13T11:10:32.629Z,1.77
2023-01-13T11:13:15.924Z,1.10
2023-01-13T11:16:07.584Z,0.80
2023-01-13T11:18:40.260Z,1.00
2023-01-13T11:21:21.422Z,1.25
2023-01-13T11:24:04.141Z,0.75
2023-01-13T11:27:04.467Z,1.00
2023-01-13T11:30:10.057Z,1.10
2023-01-13T11:32:47.302Z,0.80
2023-01-13T11:35:19.081Z,1.05
2023-01-13T11:37:53.831Z,0.98
2023-01-13T11:40:36.568Z,1.08
2023-01-13T11:43:35.393Z,1.00
2023-01-13T11:46:03.159Z,1.15
2023-01-13T11:48:35.503Z,1.02
2023-01-13T11:51:16.643Z,1.10
2023-01-13T11:54:12.127Z,1.00
2023-01-13T11:56:51.620Z,0.90
2023-01-13T11:59:36.105Z,0.85
2023-01-13T12:02:29.566Z,1.10
2023-01-13T12:05:15.492Z,1.15
2023-01-13T12:07:43.038Z,0.75
2023-01-13T12:10:28.737Z,1.10
2023-01-13T12:13:17.774Z,1.17
2023-01-13T12:16:14.202Z,1.67
2023-01-13T12:19:19.040Z,0.90
2023-01-13T12:21:58.234Z,1.08
2023-01-13T12:24:34.961Z,0.80
2023-01-13T12:27:11.944Z,1.05
2023-01-13T12:29:39.844Z,1.33
2023-01-13T12:32:34.174Z,1.20
2023-01-13T12:35:47.745Z,0.90
2023-01-13T12:38:36.949Z,1.70
2023-01-13T12:42:03.862Z,1.33
2023-01-13T12:44:31.464Z,1.20
2023-01-13T12:47:00.045Z,0.90
2023-01-13T12:49:35.315Z,1.63
2023-01-13T12:52:19.915Z,0.90
2023-01-13T12:54:47.414Z,1.17
2023-01-13T12:57:26.164Z,1.58
2023-01-13T12:59:59.632Z,1.00
2023-01-13T13:02:30.262Z,1.40
2023-01-13T13:05:21.827Z,1.48
2023-01-13T13:07:53.310Z,0.95
2023-01-13T13:10:30.264Z,1.83
2023-01-13T13:13:18.388Z,1.20
2023-01-13T13:15:48.182Z,1.65
2023-01-13T13:18:19.664Z,1.50
2023-01-13T13:20:54.209Z,1.30
2023-01-13T13:23:49.862Z,1.05
2023-01-13T13:26:20.498Z,1.65
2023-01-13T13:29:09.831Z,1.45
2023-01-13T13:32:07.964Z,1.30
2023-01-13T13:34:35.400Z,1.00
2023-01-13T13:37:21.665Z,1.58
2023-01-13T13:40:07.846Z,1.30
2023-01-13T13:43:03.363Z,1.27
2023-01-13T13:45:51.781Z,1.38
2023-01-13T13:48:24.997Z,0.90
2023-01-13T13:51:01.951Z,1.13
2023-01-13T13:53:41.654Z,1.50
2023-01-13T13:56:17.976Z,1.00
2023-01-13T13:58:48.303Z,0.82
2023-01-13T14:01:28.681Z,1.65
2023-01-13T14:04:16.608Z,0.80
2023-01-13T14:06:51.645Z,0.98
2023-01-13T14:09:19.837Z,1.00
2023-01-13T14:11:59.363Z,0.80
2023-01-13T14:14:27.104Z,0.77
2023-01-13T14:16:55.139Z,1.27
2023-01-13T14:19:35.893Z,0.95
2023-01-13T14:22:05.008Z,1.33
2023-01-13T14:24:32.821Z,1.17
2023-01-13T14:27:18.599Z,0.90
2023-01-13T14:29:47.693Z,1.13
2023-01-13T14:32:19.858Z,1.00
2023-01-13T14:34:47.768Z,0.88
2023-01-13T14:37:38.726Z,0.70
2023-01-13T14:40:06.860Z,0.88
2023-01-13T14:42:35.575Z,0.90
2023-01-13T14:45:03.738Z,0.70
2023-01-13T14:47:34.022Z,0.93
2023-01-13T14:50:06.888Z,1.10
2023-01-13T14:52:37.640Z,0.60
2023-01-13T14:55:10.081Z,0.95
2023-01-13T14:57:39.735Z,0.90
2023-01-13T15:00:16.121Z,1.15
2023-01-13T15:02:59.133Z,0.80
2023-01-13T15:05:26.699Z,1.02
2023-01-13T15:08:12.381Z,0.77
2023-01-13T15:10:54.643Z,0.80
2023-01-13T15:14:03.589Z,0.70
2023-01-13T15:16:33.951Z,0.90
2023-01-13T15:19:03.418Z,1.00
2023-01-13T15:21:30.957Z,1.10
2023-01-13T15:23:58.588Z,0.77
2023-01-13T15:26:28.949Z,0.60
2023-01-13T15:28:58.461Z,0.80
2023-01-13T15:31:26.750Z,1.02
2023-01-13T15:33:54.672Z,0.70
2023-01-13T15:38:09.330Z,0.82
2023-01-13T15:40:36.901Z,0.90
2023-01-13T15:43:22.982Z,1.75
2023-01-13T15:46:09.483Z,1.00
2023-01-13T15:48:37.093Z,0.82
2023-01-13T15:51:04.885Z,0.93
2023-01-13T15:53:36.976Z,1.00
2023-01-13T15:56:12.099Z,1.10
2023-01-13T15:58:39.889Z,0.70
2023-01-13T16:01:10.150Z,0.90
2023-01-13T16:03:37.772Z,1.10
2023-01-13T16:06:16.981Z,0.70
2023-01-13T16:08:44.640Z,0.85
2023-01-13T16:11:12.487Z,0.70
2023-01-13T16:13:40.218Z,0.70
2023-01-13T16:16:21.675Z,0.60
2023-01-13T16:18:50.230Z,0.68
2023-01-13T16:21:21.634Z,0.98
2023-01-13T16:23:50.998Z,0.63
2023-01-13T16:26:26.844Z,0.88
2023-01-13T16:31:31.922Z,0.60
2023-01-13T16:34:01.443Z,0.57
2023-01-13T16:36:30.833Z,0.40
2023-01-13T16:38:58.529Z,0.98
2023-01-13T16:41:26.109Z,0.90
2023-01-13T16:43:53.715Z,0.70
2023-01-13T16:46:25.736Z,1.15
2023-01-13T16:48:55.656Z,1.08
2023-01-13T16:51:24.443Z,1.10
2023-01-13T16:53:52.050Z,1.10
2023-01-13T16:56:27.019Z,0.90
2023-01-13T16:58:56.896Z,1.10
2023-01-13T17:01:29.699Z,1.10
2023-01-13T17:03:58.429Z,1.17
2023-01-13T17:06:28.706Z,1.05
2023-01-13T17:09:04.956Z,1.30
2023-01-13T17:11:32.939Z,3.30
2023-01-13T17:14:00.522Z,2.53
2023-01-13T17:16:38.108Z,2.38
2023-01-13T17:19:05.545Z,2.72
2023-01-13T17:21:33.234Z,4.40
2023-01-13T17:24:00.771Z,6.25
2023-01-13T17:26:44.141Z,7.07
2023-01-13T17:29:14.770Z,8.63
2023-01-13T17:31:42.654Z,7.55
2023-01-13T17:34:12.803Z,7.75
2023-01-13T17:36:40.814Z,7.75
2023-01-13T17:39:08.321Z,7.82
2023-01-13T17:41:35.830Z,7.88
2023-01-13T17:44:03.318Z,6.75
2023-01-13T17:46:30.830Z,6.43
2023-01-13T17:48:58.433Z,4.88
2023-01-13T17:51:26.034Z,5.60
2023-01-13T17:53:53.916Z,6.68
2023-01-13T17:56:21.453Z,6.10
2023-01-13T17:58:48.928Z,5.53
2023-01-13T18:01:21.762Z,7.13
2023-01-13T18:03:49.540Z,7.95
2023-01-13T18:06:21.876Z,8.65
2023-01-13T18:08:49.836Z,6.72
2023-01-13T18:11:20.793Z,7.60
2023-01-13T18:14:00.407Z,7.57
2023-01-13T18:16:30.543Z,7.47
2023-01-13T18:19:18.981Z,6.82
2023-01-13T18:22:06.209Z,7.28
2023-01-13T18:24:52.271Z,5.82
2023-01-13T18:27:24.345Z,4.90
2023-01-13T18:29:54.064Z,6.20
2023-01-13T18:32:23.192Z,5.55
2023-01-13T18:35:01.622Z,5.88
2023-01-13T18:37:35.946Z,4.88
2023-01-13T18:40:05.574Z,4.97
2023-01-13T18:42:51.360Z,5.07
2023-01-13T18:45:25.811Z,3.83
2023-01-13T18:47:55.478Z,4.90
2023-01-13T18:50:23.592Z,4.75
2023-01-13T18:52:51.844Z,4.82
2023-01-13T18:55:19.633Z,4.75
2023-01-13T18:57:47.557Z,6.03
2023-01-13T19:00:17.577Z,6.80
2023-01-13T19:02:47.336Z,6.55
2023-01-13T19:05:14.981Z,6.80
2023-01-13T19:07:46.365Z,7.28
2023-01-13T19:10:14.356Z,5.68
2023-01-13T19:12:42.344Z,8.35
2023-01-13T19:15:10.448Z,5.47
2023-01-13T19:17:37.955Z,3.95
2023-01-13T19:20:05.948Z,4.22
2023-01-13T19:22:34.783Z,3.17
2023-01-13T19:25:03.971Z,2.70
2023-01-13T19:38:09.378Z,3.20
2023-01-13T19:40:37.056Z,2.83
2023-01-13T19:43:22.990Z,3.80
2023-01-13T19:45:53.589Z,3.25
2023-01-13T19:48:21.316Z,3.22
2023-01-13T19:50:49.637Z,3.60
2023-01-13T19:53:18.007Z,3.50
2023-01-13T19:55:48.591Z,3.70
2023-01-13T19:58:18.913Z,2.90
2023-01-13T20:00:47.827Z,3.50
2023-01-13T20:03:16.856Z,3.35
2023-01-13T20:05:44.395Z,3.03
2023-01-13T20:08:11.972Z,2.78
2023-01-13T20:10:40.578Z,3.17
2023-01-13T20:13:08.158Z,2.72
2023-01-13T20:15:37.231Z,3.08
2023-01-13T20:18:04.867Z,2.55
2023-01-13T20:20:32.332Z,3.47
2023-01-13T20:22:59.806Z,4.70
2023-01-13T20:25:31.305Z,4.45
2023-01-13T20:28:00.482Z,5.60
2023-01-13T20:30:28.165Z,4.70
2023-01-13T20:32:55.803Z,3.90
2023-01-13T20:35:24.475Z,3.42
2023-01-13T20:37:51.934Z,3.60
2023-01-13T20:40:19.637Z,2.90
2023-01-13T20:42:47.127Z,2.30
2023-01-13T20:45:18.128Z,1.70
2023-01-13T20:47:46.242Z,1.80
2023-01-13T20:50:14.255Z,1.40
2023-01-13T20:52:42.366Z,1.55
2023-01-13T20:55:10.639Z,2.35
2023-01-13T20:57:38.271Z,3.92
2023-01-13T21:00:06.961Z,7.50
2023-01-13T21:02:34.593Z,5.72
2023-01-13T21:05:02.132Z,8.38
2023-01-13T21:07:29.575Z,10.48
2023-01-13T21:09:57.842Z,9.10
2023-01-13T21:12:43.810Z,7.47
2023-01-13T21:15:18.161Z,10.05
2023-01-13T21:18:06.051Z,7.55
2023-01-13T21:20:35.471Z,8.73
2023-01-13T21:23:04.405Z,6.82
2023-01-13T21:25:35.376Z,6.88
2023-01-13T21:28:06.743Z,7.20
2023-01-13T21:30:35.014Z,8.43
2023-01-13T21:33:04.224Z,8.98
2023-01-13T21:35:31.966Z,7.82
2023-01-13T21:37:59.775Z,7.05
2023-01-13T21:40:28.034Z,6.10
2023-01-13T21:43:13.831Z,6.95
2023-01-13T21:45:59.815Z,7.95
2023-01-13T21:48:27.547Z,8.13
2023-01-13T21:50:54.942Z,7.47
2023-01-13T21:53:22.487Z,6.55
2023-01-13T21:55:53.083Z,7.45
2023-01-13T21:58:20.634Z,9.05
2023-01-13T22:00:49.638Z,8.55
2023-01-13T22:03:18.788Z,10.10
2023-01-13T22:05:47.010Z,9.55
2023-01-13T22:08:14.541Z,11.25
2023-01-13T22:10:57.805Z,9.75
2023-01-13T22:13:46.231Z,11.45
2023-01-13T22:16:15.686Z,10.63
2023-01-13T22:18:43.407Z,8.70
2023-01-13T22:21:11.285Z,9.95
2023-01-13T22:23:38.821Z,8.73
2023-01-13T22:26:07.783Z,9.52
2023-01-13T22:28:40.888Z,10.15
2023-01-13T22:31:16.797Z,10.90
2023-01-13T22:36:15.985Z,7.93
2023-01-13T22:38:43.479Z,7.43
2023-01-13T22:41:11.076Z,6.75
2023-01-13T22:43:39.098Z,6.47
2023-01-13T22:46:11.334Z,6.45
2023-01-13T22:48:40.595Z,6.57
2023-01-13T22:51:10.489Z,7.03
2023-01-13T22:53:38.716Z,6.68
2023-01-13T22:56:06.789Z,6.38
2023-01-13T22:58:34.348Z,5.32
2023-01-13T23:01:13.913Z,5.45
2023-01-13T23:03:42.366Z,5.95
2023-01-13T23:06:09.960Z,4.80
2023-01-13T23:08:37.792Z,5.70
2023-01-13T23:11:10.127Z,5.65
2023-01-13T23:13:39.413Z,5.45
2023-01-13T23:16:16.459Z,5.80
2023-01-13T23:18:48.124Z,6.75
2023-01-13T23:21:36.481Z,6.03
2023-01-13T23:24:05.597Z,5.47
2023-01-13T23:26:34.288Z,5.20
2023-01-13T23:29:05.836Z,5.28
2023-01-13T23:31:33.727Z,5.40
2023-01-13T23:34:01.293Z,4.55
2023-01-13T23:36:29.248Z,4.68
2023-01-13T23:38:59.199Z,4.00
2023-01-13T23:41:27.890Z,4.05
2023-01-13T23:43:58.184Z,3.92
2023-01-13T23:46:27.234Z,4.93
2023-01-13T23:48:55.624Z,3.53
2023-01-13T23:51:25.309Z,3.80
2023-01-13T23:53:52.987Z,4.22
2023-01-13T23:56:23.485Z,3.47
2023-01-13T23:58:51.242Z,3.15
